Latest Weather Observations for Nhill Aerodrome

IDV60801

Issued at 12:32 pm EST Friday 21 July 2017 (issued every 30 minutes, with the page automatically refreshed every 10 minutes)

About weather observations | Map of weather stations | Latest weather observations for VIC | Other Formats
Station Details ID: 078015 Name: NHILL AERODROME Lat: -36.31 Lon: 141.65 Height: 138.9 m
Data from the previous 72 hours. | See also: Recent months at Nhill Aerodrome
Date/Time
EST
Temp
°C
App
Temp
°C
Dew
Point
°C
Rel
Hum
%
Delta-T
°C
Wind Press
QNH
hPa
Press
MSL
hPa
Rain since
9am
mm
Dir  Spd
km/h
Gust
km/h
Spd
kts
Gust
kts
21/12:30pm 10.8 6.9 3.4 60 3.3 NNE 13 24 7 13 1023.0 1023.2 0.0
21/12:00pm 10.4 7.0 4.1 65 2.8 NNE 11 20 6 11 1023.6 1023.8 0.0
21/11:30am 9.0 5.6 4.0 71 2.2 NNE 11 17 6 9 1024.3 1024.5 0.0
21/11:00am 8.0 4.2 3.7 74 1.9 NNE 13 20 7 11 1024.6 1024.9 0.0
21/10:30am 7.3 4.2 3.4 76 1.7 N 9 15 5 8 1024.8 1025.1 0.0
21/10:00am 6.6 3.4 2.9 77 1.5 NNE 9 19 5 10 1024.7 1025.0 0.0
21/09:30am 5.3 3.5 3.5 88 0.8 NNW 2 9 1 5 1024.6 1024.9 0.0
21/09:00am 2.9 0.0 1.4 90 0.6 NNW 6 7 3 4 1024.5 1024.8 0.0
21/08:30am 2.2 -0.4 0.7 90 0.6 NNW 4 7 2 4 1024.3 1024.5 0.0
21/08:00am 1.9 -1.2 0.3 89 0.6 NE 6 13 3 7 1023.8 1024.0 0.0
21/07:30am 2.5 -2.2 0.6 87 0.7 ENE 15 20 8 11 1022.7 1022.9 0.0
21/07:00am 3.0 -2.4 1.1 87 0.7 ENE 19 22 10 12 1022.2 1022.4 0.0
21/06:30am 2.8 -1.9 0.9 87 0.7 ENE 15 19 8 10 1022.7 1022.9 0.0
21/06:00am 3.0 -1.3 1.2 88 0.7 ENE 13 17 7 9 1022.7 1022.9 0.0
21/05:30am 2.3 -1.7 0.8 90 0.6 ENE 11 13 6 7 1022.8 1023.0 0.0
21/05:00am 1.6 -0.4 0.0 89 0.6 CALM 0 6 0 3 1022.7 1022.9 0.0
21/04:30am 2.0 -0.7 0.2 88 0.7 NNE 4 7 2 4 1022.5 1022.7 0.0
21/04:00am 2.9 -0.1 0.8 86 0.8 NNE 6 7 3 4 1022.4 1022.6 0.0
21/03:30am 3.8 -0.4 1.4 84 0.9 ENE 13 17 7 9 1022.0 1022.2 0.0
21/03:00am 4.1 -0.1 1.6 84 1.0 ENE 13 19 7 10 1022.1 1022.3 0.0
21/02:30am 3.9 -0.7 1.6 85 0.9 E 15 19 8 10 1022.1 1022.3 0.0
21/02:00am 4.3 -0.3 1.8 84 1.0 E 15 20 8 11 1022.2 1022.4 0.0
21/01:30am 4.5 -1.0 2.0 84 1.0 E 20 24 11 13 1022.0 1022.2 0.0
21/01:00am 4.3 -0.2 2.0 85 0.9 E 15 19 8 10 1022.2 1022.4 0.0
21/12:30am 4.5 -0.4 2.2 85 0.9 E 17 20 9 11 1022.5 1022.7 0.0
21/12:00am 4.7 -0.1 2.4 85 0.9 E 17 20 9 11 1022.5 1022.7 0.0
 
Date/Time
EST
Temp
°C
App
Temp
°C
Dew
Point
°C
Rel
Hum
%
Delta-T
°C
Wind Press
QNH
hPa
Press
MSL
hPa
Rain since
9am
mm
Dir  Spd
km/h
Gust
km/h
Spd
kts
Gust
kts
20/11:30pm 4.4 0.3 2.4 87 0.8 ESE 13 17 7 9 1023.0 1023.2 0.0
20/11:00pm 4.7 0.7 2.6 86 0.9 ESE 13 15 7 8 1022.8 1023.0 0.0
20/10:30pm 5.5 2.2 2.3 80 1.3 SE 9 11 5 6 1022.9 1023.1 0.0
20/10:00pm 6.1 3.2 2.6 78 1.4 SE 7 9 4 5 1022.8 1023.0 0.0
20/09:30pm 6.2 2.6 2.7 78 1.5 SE 11 13 6 7 1022.6 1022.8 0.0
20/09:00pm 6.7 3.1 3.1 78 1.5 SSE 11 13 6 7 1022.7 1022.9 0.0
20/08:30pm 6.2 3.0 3.2 81 1.3 S 9 11 5 6 1022.7 1022.9 0.0
20/08:00pm 7.4 3.9 3.6 77 1.6 SSE 11 13 6 7 1022.5 1022.7 0.0
20/07:30pm 8.4 5.0 3.8 73 2.0 S 11 15 6 8 1022.6 1022.8 0.0
20/07:00pm 7.8 4.3 3.7 75 1.8 S 11 15 6 8 1022.5 1022.7 0.0
20/06:30pm 7.4 3.4 3.1 74 1.8 SSW 13 17 7 9 1022.2 1022.4 0.0
20/06:00pm 7.9 4.0 3.6 74 1.8 SSW 13 13 7 7 1021.7 1021.9 0.0
20/05:30pm 8.5 4.3 3.8 72 2.1 SW 15 17 8 9 1021.5 1021.7 0.0
20/05:00pm 10.2 5.6 3.9 65 2.8 SW 17 20 9 11 1021.1 1021.3 0.0
20/04:30pm 11.4 7.0 4.6 63 3.1 WSW 17 20 9 11 1020.9 1021.1 0.0
20/04:00pm 11.3 6.2 4.1 61 3.2 SW 20 30 11 16 1021.0 1021.2 0.0
20/03:30pm 12.9 7.5 4.6 57 3.8 SW 22 30 12 16 1021.0 1021.2 0.0
20/03:00pm 12.6 7.7 5.1 60 3.5 W 20 26 11 14 1021.1 1021.3 0.0
20/02:30pm 11.8 6.2 5.2 64 3.1 WSW 24 32 13 17 1021.1 1021.3 0.0
20/02:00pm 11.9 6.5 4.6 61 3.3 WSW 22 32 12 17 1021.2 1021.4 0.0
20/01:30pm 12.3 6.6 4.8 60 3.5 WSW 24 28 13 15 1021.4 1021.6 0.0
20/01:00pm 12.0 6.3 4.7 61 3.3 WSW 24 32 13 17 1021.6 1021.8 0.0
20/12:30pm 12.0 5.9 5.0 62 3.2 SW 26 35 14 19 1021.6 1021.8 0.0
20/12:00pm 11.5 4.6 4.5 62 3.2 SW 30 37 16 20 1021.9 1022.1 0.0
20/11:30am 11.8 5.4 5.2 64 3.1 WSW 28 39 15 21 1022.3 1022.5 0.0
20/11:00am 10.7 4.4 5.9 72 2.2 WSW 28 33 15 18 1022.6 1022.8 0.0
20/10:30am 9.7 5.3 6.4 80 1.5 W 19 26 10 14 1022.7 1022.9 0.0
20/10:00am 8.2 4.0 5.7 84 1.1 W 17 22 9 12 1022.7 1022.9 0.0
20/09:30am 7.3 3.8 5.4 88 0.9 WNW 13 19 7 10 1022.8 1023.0 0.0
20/09:00am 6.2 2.5 4.7 90 0.7 NW 13 17 7 9 1022.7 1022.9 0.0
20/08:30am 5.0 1.2 3.7 91 0.5 NW 13 15 7 8 1022.5 1022.7 0.0
20/08:00am 4.6 0.3 3.4 92 0.5 NW 15 17 8 9 1022.4 1022.6 0.0
20/07:30am 4.0 0.0 2.8 92 0.5 NW 13 15 7 8 1022.0 1022.2 0.0
20/07:00am 3.7 -0.4 2.5 92 0.5 NW 13 15 7 8 1021.7 1021.9 0.0
20/06:30am 3.5 0.2 2.3 92 0.5 W 9 11 5 6 1021.5 1021.7 0.0
20/06:00am 3.9 0.2 2.6 91 0.5 WNW 11 15 6 8 1021.4 1021.6 0.0
20/05:30am 4.2 0.2 2.9 91 0.5 WNW 13 17 7 9 1021.6 1021.8 0.0
20/05:00am 4.0 -0.1 2.5 90 0.6 WNW 13 17 7 9 1021.6 1021.8 0.0
20/04:30am 4.4 0.0 2.9 90 0.6 WNW 15 20 8 11 1021.3 1021.5 0.0
20/04:00am 4.0 0.7 2.5 90 0.6 NW 9 15 5 8 1021.5 1021.7 0.0
20/03:30am 3.9 1.0 2.4 90 0.6 WNW 7 13 4 7 1021.4 1021.6 0.0
20/03:00am 4.3 1.4 2.8 90 0.6 NW 7 11 4 6 1021.5 1021.7 0.0
20/02:30am 4.3 1.1 2.8 90 0.6 WNW 9 11 5 6 1021.8 1022.0 0.0
20/02:00am 4.4 0.0 2.9 90 0.6 W 15 17 8 9 1021.9 1022.1 0.0
20/01:30am 4.2 -0.2 2.7 90 0.6 WSW 15 17 8 9 1022.1 1022.3 0.0
20/01:00am 4.3 0.3 3.0 91 0.5 W 13 15 7 8 1022.1 1022.3 0.0
20/12:30am 4.2 0.6 2.9 91 0.5 W 11 13 6 7 1022.1 1022.3 0.0
20/12:00am 4.4 1.2 2.8 89 0.7 WSW 9 11 5 6 1022.2 1022.4 0.0
 
Date/Time
EST
Temp
°C
App
Temp
°C
Dew
Point
°C
Rel
Hum
%
Delta-T
°C
Wind Press
QNH
hPa
Press
MSL
hPa
Rain since
9am
mm
Dir  Spd
km/h
Gust
km/h
Spd
kts
Gust
kts
19/11:30pm 4.9 1.0 3.4 90 0.6 W 13 17 7 9 1022.4 1022.6 0.0
19/11:00pm 5.1 0.8 3.4 89 0.7 NW 15 17 8 9 1022.5 1022.7 0.0
19/10:30pm 5.7 1.5 3.9 88 0.8 WNW 15 17 8 9 1022.7 1022.9 0.0
19/10:00pm 5.8 1.9 3.5 85 1.0 WNW 13 15 7 8 1022.9 1023.1 0.0
19/09:30pm 6.5 2.7 4.0 84 1.1 WNW 13 17 7 9 1022.9 1023.1 0.0
19/09:00pm 6.7 3.0 4.2 84 1.1 WNW 13 15 7 8 1022.9 1023.1 0.0
19/08:30pm 7.6 4.3 4.7 82 1.3 W 11 13 6 7 1022.9 1023.1 0.0
19/08:00pm 8.0 4.8 4.9 81 1.4 W 11 13 6 7 1022.8 1023.0 0.0
19/07:30pm 8.2 4.9 4.8 79 1.5 WSW 11 13 6 7 1022.5 1022.7 0.0
19/07:00pm 8.6 4.6 4.8 77 1.7 WSW 15 19 8 10 1022.1 1022.3 0.0
19/06:30pm 7.1 3.7 3.9 80 1.4 WSW 11 13 6 7 1021.8 1022.0 0.0
19/06:00pm 7.7 4.2 3.7 76 1.7 WSW 11 13 6 7 1021.3 1021.5 0.0
19/05:30pm 9.4 4.5 4.0 69 2.4 SW 19 24 10 13 1021.1 1021.3 0.0
19/05:00pm 9.9 3.9 3.6 65 2.8 SSW 24 33 13 18 1020.8 1021.0 0.0
19/04:30pm 10.5 4.0 4.6 67 2.7 SSW 28 35 15 19 1020.7 1020.9 0.0
19/04:00pm 10.7 3.5 4.8 67 2.7 SW 32 39 17 21 1020.4 1020.7 0.0
19/03:30pm 11.7 4.7 5.8 67 2.8 WSW 32 43 17 23 1020.0 1020.3 0.0
19/03:00pm 11.4 3.4 5.5 67 2.7 SW 37 46 20 25 1019.6 1019.9 0.0
19/02:30pm 11.4 4.0 5.1 65 2.9 SW 33 43 18 23 1019.3 1019.6 0.0
19/02:00pm 11.4 4.4 5.9 69 2.6 SW 32 43 17 23 1019.3 1019.6 0.0
19/01:30pm 12.2 5.7 6.7 69 2.6 WSW 30 41 16 22 1019.5 1019.8 0.0
19/01:00pm 11.9 4.9 6.0 67 2.8 WSW 32 43 17 23 1019.5 1019.8 0.0
19/12:30pm 10.6 3.5 6.2 74 2.1 WSW 33 46 18 25 1019.8 1020.1 0.0
19/12:20pm 11.1 4.7 6.8 75 2.1 WSW 30 43 16 23 1019.8 1020.1 0.0
19/12:00pm 11.4 3.3 6.9 74 2.2 SW 39 52 21 28 1019.9 1020.2 0.0
19/11:30am 11.0 4.3 7.3 78 1.8 SW 32 44 17 24 1019.8 1020.1 0.0
19/11:00am 10.4 2.9 6.5 77 1.8 SW 35 44 19 24 1019.5 1019.8 0.0
19/10:30am 10.2 2.7 6.5 78 1.7 SW 35 48 19 26 1019.0 1019.3 0.0
19/10:00am 9.9 3.1 7.0 82 1.4 SW 32 41 17 22 1018.2 1018.4 0.0
19/09:30am 9.6 3.6 7.0 84 1.2 SW 28 41 15 22 1017.7 1017.9 0.0
19/09:00am 9.5 3.9 7.3 86 1.0 SW 26 33 14 18 1017.3 1017.5 0.4
19/08:30am 8.7 3.0 6.7 87 0.9 WSW 26 35 14 19 1016.7 1016.9 0.4
19/08:00am 9.0 3.0 7.0 87 0.9 WSW 28 39 15 21 1015.9 1016.1 0.4
19/07:30am 9.5 3.2 7.3 86 1.0 SW 30 39 16 21 1015.4 1015.6 0.4
19/07:00am 9.9 3.1 7.8 87 1.0 SW 33 46 18 25 1015.1 1015.3 0.4
19/06:30am 9.6 3.9 8.5 93 0.5 WSW 28 35 15 19 1014.6 1014.8 0.4
19/06:00am 9.7 4.4 8.5 92 0.6 WSW 26 33 14 18 1014.0 1014.2 0.4
19/05:30am 9.6 3.9 8.5 93 0.5 WSW 28 35 15 19 1013.3 1013.5 0.4
19/05:00am 9.5 3.8 8.4 93 0.5 W 28 39 15 21 1012.9 1013.2 0.4
19/04:30am 9.3 3.9 8.1 92 0.6 W 26 35 14 19 1012.5 1012.8 0.4
19/04:00am 9.3 3.9 7.9 91 0.7 W 26 35 14 19 1012.2 1012.4 0.4
19/03:30am 9.2 3.4 7.8 91 0.7 W 28 39 15 21 1012.0 1012.2 0.4
19/03:00am 9.5 3.7 7.8 89 0.8 W 28 39 15 21 1011.7 1011.9 0.4
19/02:30am 9.5 3.7 7.8 89 0.8 W 28 35 15 19 1011.8 1012.0 0.4
19/02:00am 9.5 4.1 8.1 91 0.7 WSW 26 35 14 19 1011.4 1011.6 0.4
19/01:30am 9.4 4.0 8.2 92 0.6 WSW 26 35 14 19 1011.3 1011.5 0.4
19/01:00am 9.3 3.9 8.1 92 0.6 W 26 33 14 18 1011.2 1011.4 0.4
19/12:30am 9.2 3.4 8.1 93 0.5 WSW 28 43 15 23 1010.9 1011.1 0.4
19/12:00am 9.0 3.9 7.8 92 0.6 W 24 35 13 19 1010.8 1011.0 0.4
 
Date/Time
EST
Temp
°C
App
Temp
°C
Dew
Point
°C
Rel
Hum
%
Delta-T
°C
Wind Press
QNH
hPa
Press
MSL
hPa
Rain since
9am
mm
Dir  Spd
km/h
Gust
km/h
Spd
kts
Gust
kts
18/11:30pm 9.1 4.1 8.0 93 0.5 W 24 32 13 17 1010.6 1010.8 0.4
18/11:00pm 8.9 4.2 7.8 93 0.5 W 22 32 12 17 1010.4 1010.6 0.4
18/10:30pm 8.8 4.1 7.7 93 0.5 WNW 22 35 12 19 1010.1 1010.3 0.4
18/10:00pm 8.8 4.5 7.9 94 0.4 WNW 20 28 11 15 1009.9 1010.1 0.4
18/09:30pm 8.9 4.8 7.8 93 0.5 WNW 19 24 10 13 1009.7 1009.9 0.4
18/09:00pm 9.0 4.7 7.8 92 0.6 WNW 20 24 11 13 1009.5 1009.7 0.4
18/08:30pm 9.2 4.6 8.0 92 0.6 WNW 22 30 12 16 1009.3 1009.5 0.2
18/08:00pm 8.9 4.8 7.7 92 0.6 NW 19 24 10 13 1009.1 1009.3 0.2
18/07:30pm 8.6 4.2 7.2 91 0.7 NW 20 30 11 16 1008.7 1008.9 0.2
18/07:00pm 8.8 4.0 7.3 90 0.7 NW 22 28 12 15 1008.3 1008.5 0.2
18/06:30pm 8.8 3.9 7.1 89 0.8 NW 22 26 12 14 1008.1 1008.3 0.2
18/06:00pm 9.2 3.2 7.2 87 1.0 NW 28 37 15 20 1007.9 1008.1 0.2
18/05:30pm 9.4 3.4 7.0 85 1.1 NW 28 35 15 19 1007.6 1007.8 0.2
18/05:00pm 10.2 3.4 7.1 81 1.5 NW 32 41 17 22 1007.4 1007.6 0.2
18/04:30pm 10.6 5.1 7.7 82 1.4 NW 26 37 14 20 1007.5 1007.7 0.2
18/04:00pm 10.0 3.5 6.7 80 1.6 NW 30 43 16 23 1007.5 1007.7 0.2
18/03:30pm 11.8 4.9 7.1 73 2.3 NW 33 44 18 24 1007.2 1007.4 0.2
18/03:00pm 11.9 5.1 7.0 72 2.4 NW 32 43 17 23 1007.1 1007.3 0.2
18/02:30pm 11.2 4.9 7.5 78 1.8 NNW 30 41 16 22 1007.0 1007.2 0.2
18/02:00pm 10.7 5.2 7.4 80 1.6 NNW 26 37 14 20 1007.4 1007.6 0.2
18/01:30pm 11.0 5.4 7.3 78 1.8 NNW 26 39 14 21 1007.6 1007.8 0.2
18/01:00pm 11.3 5.5 7.8 79 1.7 NNW 28 41 15 22 1007.8 1008.0 0.2

Other Formats:

Comma delimited format used in spreadsheet applications
http://www.bom.gov.au/fwo/IDV60801/IDV60801.94827.axf

JavaScript Object Notation format (JSON) in row-major order
http://www.bom.gov.au/fwo/IDV60801/IDV60801.94827.json